Weather Station Data

Station Data Captured at Five Minute Intervals Since Midnight Local Time


Date Time Temp. RH % Dew Pt. Wind Speed Wind Dir. Peak Wind Wind Chill Pressure Precip. Solar W/m2 ET
1/28/22 7:55p 16.2 82 11.7 6.0 N 11.0 7.4 30.264 0.00 0 0.000
1/28/22 7:50p 16.3 82 11.8 5.0 N 10.0 8.6 30.262 0.00 0 0.000
1/28/22 7:45p 16.4 82 11.9 5.0 NNW 11.0 8.8 30.260 0.00 0 0.000
1/28/22 7:40p 16.6 82 12.1 3.0 N 8.0 11.9 30.260 0.00 0 0.000
1/28/22 7:35p 16.7 82 12.2 5.0 NNW 10.0 9.1 30.260 0.00 0 0.000
1/28/22 7:30p 16.8 82 12.3 6.0 NW 12.0 8.1 30.260 0.00 0 0.000
1/28/22 7:25p 16.9 83 12.6 7.0 NNW 13.0 7.3 30.260 0.00 0 0.000
1/28/22 7:20p 17.0 83 12.7 6.0 NW 10.0 8.4 30.257 0.00 0 0.000
1/28/22 7:15p 17.1 83 12.8 7.0 NW 11.0 7.5 30.252 0.00 0 0.000
1/28/22 7:10p 17.2 83 12.9 6.0 NW 11.0 8.6 30.249 0.00 0 0.000
1/28/22 7:05p 17.3 83 13.0 5.0 NNW 12.0 9.8 30.247 0.00 0 0.000
1/28/22 7:00p 17.4 83 13.1 5.0 N 13.0 9.9 30.244 0.00 0 0.000
1/28/22 6:55p 17.5 83 13.2 5.0 NNW 12.0 10.0 30.241 0.00 0 0.000
1/28/22 6:50p 17.6 83 13.3 4.0 NNW 12.0 11.4 30.236 0.00 0 0.000
1/28/22 6:45p 17.6 83 13.3 3.0 N 8.0 13.0 30.235 0.00 0 0.000
1/28/22 6:40p 17.6 83 13.3 4.0 NNW 9.0 11.4 30.232 0.00 0 0.000
1/28/22 6:35p 17.7 83 13.4 4.0 N 10.0 11.6 30.230 0.00 0 0.000
1/28/22 6:30p 17.9 83 13.6 5.0 NNW 10.0 10.5 30.230 0.00 0 0.000
1/28/22 6:25p 18.0 83 13.7 4.0 N 10.0 11.9 30.228 0.00 0 0.000
1/28/22 6:20p 18.1 83 13.8 5.0 NNW 10.0 10.7 30.225 0.00 0 0.000
1/28/22 6:15p 18.2 83 13.9 5.0 NNW 11.0 10.9 30.222 0.00 0 0.000
1/28/22 6:10p 18.4 82 13.8 4.0 NW 10.0 12.4 30.222 0.00 0 0.000
1/28/22 6:05p 18.5 82 13.9 4.0 NNE 10.0 12.5 30.219 0.00 0 0.000
1/28/22 6:00p 18.6 82 14.0 4.0 N 8.0 12.6 30.217 0.00 0 0.000
1/28/22 5:55p 18.7 83 14.4 2.0 NW 5.0 16.4 30.217 0.00 0 0.000
1/28/22 5:50p 18.8 83 14.5 5.0 NW 13.0 11.6 30.214 0.00 0 0.000
1/28/22 5:45p 19.0 83 14.7 3.0 NNW 9.0 14.6 30.208 0.00 0 0.000
1/28/22 5:40p 19.0 83 14.7 4.0 NNW 9.0 13.1 30.205 0.00 4 0.000
1/28/22 5:35p 19.0 83 14.7 5.0 NNE 12.0 11.8 30.202 0.00 8 0.000
1/28/22 5:30p 19.2 83 14.9 6.0 NNW 12.0 11.0 30.200 0.00 11 0.000
1/28/22 5:25p 19.2 83 14.9 4.0 NW 12.0 13.3 30.200 0.00 13 0.000
1/28/22 5:20p 19.3 82 14.7 5.0 NNW 12.0 12.2 30.196 0.00 14 0.000
1/28/22 5:15p 19.5 83 15.2 6.0 NNW 11.0 11.3 30.196 0.00 16 0.000
1/28/22 5:10p 19.8 83 15.5 5.0 N 12.0 12.7 30.192 0.00 18 0.000
1/28/22 5:05p 19.9 83 15.6 5.0 NNW 10.0 12.9 30.187 0.00 18 0.000
1/28/22 5:00p 20.1 83 15.8 6.0 NNW 11.0 12.1 30.185 0.00 16 0.001
1/28/22 4:55p 20.3 83 16.0 5.0 N 11.0 13.3 30.183 0.00 13 0.000
1/28/22 4:50p 20.4 83 16.1 4.0 N 11.0 14.7 30.180 0.00 14 0.000
1/28/22 4:45p 20.4 83 16.1 4.0 N 10.0 14.7 30.176 0.00 16 0.000
1/28/22 4:40p 20.4 83 16.1 4.0 N 10.0 14.7 30.177 0.00 20 0.000
1/28/22 4:35p 20.4 83 16.1 5.0 N 12.0 13.5 30.175 0.00 23 0.000
1/28/22 4:30p 20.6 83 16.3 5.0 N 11.0 13.7 30.174 0.00 25 0.000
1/28/22 4:25p 20.7 83 16.4 6.0 NNW 13.0 12.8 30.171 0.00 26 0.000
1/28/22 4:20p 20.9 83 16.5 6.0 NW 10.0 13.0 30.169 0.00 27 0.000
1/28/22 4:15p 21.1 82 16.5 6.0 NNW 13.0 13.2 30.169 0.00 27 0.000
1/28/22 4:10p 21.4 82 16.8 7.0 NNW 13.0 12.7 30.166 0.00 28 0.000
1/28/22 4:05p 21.8 82 17.2 7.0 NNW 15.0 13.2 30.163 0.00 30 0.000
1/28/22 4:00p 22.3 83 17.9 6.0 NNW 15.0 14.7 30.162 0.00 31 0.001
1/28/22 3:55p 22.6 83 18.2 6.0 NNW 12.0 15.0 30.158 0.00 32 0.000
1/28/22 3:50p 22.8 82 18.1 6.0 NW 12.0 15.3 30.155 0.00 33 0.000
1/28/22 3:45p 23.2 82 18.5 8.0 NW 14.0 14.1 30.156 0.00 29 0.000
1/28/22 3:40p 24.2 83 19.8 5.0 N 14.0 17.9 30.153 0.01 27 0.000
1/28/22 3:35p 24.6 83 20.2 5.0 NW 12.0 18.4 30.152 0.00 27 0.000
1/28/22 3:30p 24.8 83 20.4 4.0 NNE 8.0 19.8 30.148 0.00 29 0.000
1/28/22 3:25p 25.0 83 20.6 4.0 NNW 10.0 20.0 30.147 0.00 27 0.000
1/28/22 3:20p 25.1 83 20.7 4.0 NNW 11.0 20.1 30.145 0.00 23 0.000
1/28/22 3:15p 25.3 82 20.6 5.0 NW 12.0 19.2 30.144 0.00 24 0.000
1/28/22 3:10p 25.8 83 21.3 4.0 NNE 10.0 20.9 30.143 0.00 21 0.000
1/28/22 3:05p 26.1 83 21.6 3.0 N 9.0 22.6 30.140 0.00 21 0.000
1/28/22 3:00p 26.2 83 21.7 3.0 NNE 6.0 22.8 30.139 0.00 18 0.001
1/28/22 2:55p 26.3 83 21.8 5.0 N 10.0 20.4 30.138 0.00 20 0.000
1/28/22 2:50p 26.6 82 21.8 4.0 NW 9.0 21.8 30.136 0.00 23 0.000
1/28/22 2:45p 26.9 82 22.1 5.0 N 10.0 21.1 30.132 0.00 24 0.000
1/28/22 2:40p 27.2 82 22.4 5.0 NNW 11.0 21.4 30.131 0.00 24 0.000
1/28/22 2:35p 27.5 82 22.7 5.0 N 10.0 21.8 30.132 0.01 20 0.000
1/28/22 2:30p 28.0 81 22.9 6.0 NW 12.0 21.5 30.132 0.00 16 0.000
1/28/22 2:25p 28.8 81 23.7 4.0 NNW 12.0 24.4 30.134 0.00 14 0.000
1/28/22 2:20p 29.6 82 24.8 4.0 N 12.0 25.3 30.134 0.00 20 0.000
1/28/22 2:15p 29.7 81 24.6 3.0 NW 7.0 26.7 30.134 0.00 25 0.000
1/28/22 2:10p 30.1 81 25.0 3.0 NW 5.0 27.2 30.134 0.00 26 0.000
1/28/22 2:05p 30.3 81 25.2 3.0 NW 5.0 27.4 30.135 0.00 31 0.000
1/28/22 2:00p 30.5 81 25.4 2.0 NNE 5.0 29.3 30.135 0.00 35 0.001
1/28/22 1:55p 30.6 81 25.5 2.0 NNE 5.0 29.4 30.135 0.00 39 0.000
1/28/22 1:50p 30.6 81 25.5 1.0 NNE 4.0 30.6 30.135 0.00 34 0.000
1/28/22 1:45p 30.7 81 25.6 2.0 NNE 4.0 29.5 30.139 0.00 40 0.000
1/28/22 1:40p 30.6 81 25.5 1.0 NNE 4.0 30.6 30.141 0.00 44 0.000
1/28/22 1:35p 30.6 81 25.5 1.0 NNE 5.0 30.6 30.142 0.00 37 0.000
1/28/22 1:30p 30.5 80 25.1 2.0 NNE 4.0 29.3 30.145 0.00 33 0.000
1/28/22 1:25p 30.7 80 25.3 2.0 NNE 4.0 29.5 30.147 0.00 34 0.000
1/28/22 1:20p 30.8 81 25.7 1.0 NNE 4.0 30.8 30.150 0.00 32 0.000
1/28/22 1:15p 30.8 81 25.7 1.0 NNE 3.0 30.8 30.151 0.00 37 0.000
1/28/22 1:10p 30.8 81 25.7 1.0 NNE 4.0 30.8 30.153 0.00 45 0.000
1/28/22 1:05p 30.8 81 25.7 1.0 NNE 4.0 30.8 30.154 0.00 50 0.000
1/28/22 1:00p 30.7 81 25.6 0.0 NNE 2.0 30.7 30.156 0.00 53 0.001
1/28/22 12:55p 30.5 81 25.4 1.0 NNE 3.0 30.5 30.156 0.00 46 0.000
1/28/22 12:50p 30.4 81 25.3 1.0 NNE 3.0 30.4 30.157 0.00 42 0.000
1/28/22 12:45p 30.3 81 25.2 1.0 NNE 3.0 30.3 30.158 0.00 35 0.000
1/28/22 12:40p 30.5 81 25.4 1.0 NNE 4.0 30.5 30.162 0.00 25 0.000
1/28/22 12:35p 30.6 81 25.5 1.0 NNE 4.0 30.6 30.163 0.00 23 0.000
1/28/22 12:30p 30.6 81 25.5 1.0 NNE 2.0 30.6 30.166 0.00 23 0.000
1/28/22 12:25p 30.6 80 25.2 1.0 NNE 3.0 30.6 30.168 0.00 28 0.000
1/28/22 12:20p 30.7 80 25.3 1.0 NNE 3.0 30.7 30.171 0.00 40 0.000
1/28/22 12:15p 30.9 80 25.5 1.0 NNE 3.0 30.9 30.173 0.00 44 0.000
1/28/22 12:10p 30.8 81 25.7 0.0 NNE 1.0 30.8 30.176 0.00 45 0.000
1/28/22 12:05p 30.7 81 25.6 0.0 NNE 2.0 30.7 30.179 0.00 44 0.000
1/28/22 12:00p 30.6 81 25.5 1.0 NNE 5.0 30.6 30.179 0.00 36 0.001
1/28/22 11:55a 30.6 80 25.2 1.0 NNE 4.0 30.6 30.179 0.00 40 0.000
1/28/22 11:50a 30.8 81 25.7 1.0 NNE 4.0 30.8 30.180 0.00 41 0.000
1/28/22 11:45a 30.9 81 25.8 1.0 NNE 2.0 30.9 30.180 0.00 45 0.000
1/28/22 11:40a 31.0 81 25.9 1.0 NNE 5.0 31.0 30.184 0.00 43 0.000
1/28/22 11:35a 30.8 81 25.7 1.0 NNE 3.0 30.8 30.185 0.00 42 0.000
1/28/22 11:30a 30.8 81 25.7 1.0 NNE 3.0 30.8 30.186 0.00 46 0.000
1/28/22 11:25a 31.0 81 25.9 1.0 NNE 4.0 31.0 30.186 0.00 44 0.000
1/28/22 11:20a 30.8 82 26.0 0.0 NNE 1.0 30.8 30.186 0.00 40 0.000
1/28/22 11:15a 30.4 82 25.6 0.0 NNE 1.0 30.4 30.187 0.00 40 0.000
1/28/22 11:10a 30.2 82 25.4 0.0 NNE 2.0 30.2 30.188 0.00 39 0.000
1/28/22 11:05a 30.3 82 25.5 0.0 NNE 2.0 30.3 30.186 0.00 37 0.000
1/28/22 11:00a 30.2 82 25.4 0.0 NNE 1.0 30.2 30.187 0.00 37 0.000
1/28/22 10:55a 29.9 82 25.1 0.0 NNE 1.0 29.9 30.188 0.00 36 0.000
1/28/22 10:50a 29.8 82 25.0 0.0 NNE 2.0 29.8 30.188 0.00 34 0.000
1/28/22 10:45a 29.9 82 25.1 1.0 NNE 2.0 29.9 30.190 0.00 33 0.000
1/28/22 10:40a 29.9 82 25.1 0.0 NNE 1.0 29.9 30.190 0.00 31 0.000
1/28/22 10:35a 29.8 82 25.0 0.0 NNE 1.0 29.8 30.187 0.00 26 0.000
1/28/22 10:30a 29.6 82 24.8 0.0 NNE 1.0 29.6 30.189 0.00 23 0.000
1/28/22 10:25a 29.5 82 24.7 0.0 NNE 2.0 29.5 30.190 0.00 20 0.000
1/28/22 10:20a 29.6 83 25.1 0.0 NNE 2.0 29.6 30.190 0.00 21 0.000
1/28/22 10:15a 29.6 83 25.1 1.0 NNE 4.0 29.6 30.188 0.00 22 0.000
1/28/22 10:10a 29.8 83 25.3 0.0 NNE 3.0 29.8 30.187 0.00 22 0.000
1/28/22 10:05a 29.8 83 25.3 0.0 NNE 1.0 29.8 30.189 0.00 20 0.000
1/28/22 10:00a 29.7 83 25.2 1.0 NNE 3.0 29.7 30.190 0.00 19 0.000
1/28/22 9:55a 29.7 83 25.2 1.0 NNE 3.0 29.7 30.191 0.00 20 0.000
1/28/22 9:50a 29.7 83 25.2 1.0 NNE 3.0 29.7 30.188 0.00 19 0.000
1/28/22 9:45a 29.7 83 25.2 1.0 NNE 3.0 29.7 30.191 0.00 21 0.000
1/28/22 9:40a 29.8 83 25.3 1.0 NNE 3.0 29.8 30.192 0.00 20 0.000
1/28/22 9:35a 29.8 84 25.6 1.0 NNE 3.0 29.8 30.193 0.00 21 0.000
1/28/22 9:30a 29.6 83 25.1 1.0 NNE 4.0 29.6 30.195 0.00 21 0.000
1/28/22 9:25a 29.8 84 25.6 1.0 NNE 3.0 29.8 30.193 0.00 21 0.000
1/28/22 9:20a 29.8 84 25.6 1.0 NNE 2.0 29.8 30.193 0.00 23 0.000
1/28/22 9:15a 29.6 84 25.4 0.0 NNE 2.0 29.6 30.191 0.00 29 0.000
1/28/22 9:10a 29.3 84 25.1 0.0 NNE 2.0 29.3 30.191 0.00 33 0.000
1/28/22 9:05a 29.2 84 25.0 1.0 NNE 2.0 29.2 30.195 0.00 29 0.000
1/28/22 9:00a 29.0 84 24.8 1.0 NNE 2.0 29.0 30.195 0.00 22 0.000
1/28/22 8:55a 29.0 84 24.8 1.0 NNE 2.0 29.0 30.196 0.00 17 0.000
1/28/22 8:50a 28.9 84 24.7 1.0 NNE 3.0 28.9 30.193 0.00 13 0.000
1/28/22 8:45a 29.0 84 24.8 1.0 NNE 3.0 29.0 30.192 0.00 11 0.000
1/28/22 8:40a 28.9 84 24.7 1.0 NNE 2.0 28.9 30.191 0.00 8 0.000
1/28/22 8:35a 28.9 84 24.7 1.0 NNE 2.0 28.9 30.193 0.01 5 0.000
1/28/22 8:30a 29.0 84 24.8 1.0 NNE 3.0 29.0 30.194 0.00 1 0.000
1/28/22 8:25a 29.1 84 24.9 1.0 NNE 3.0 29.1 30.193 0.00 0 0.000
1/28/22 8:20a 29.2 84 25.0 1.0 NNE 2.0 29.2 30.193 0.00 0 0.000
1/28/22 8:15a 29.1 84 24.9 1.0 NNE 3.0 29.1 30.194 0.00 0 0.000
1/28/22 8:10a 29.1 84 24.9 0.0 NNE 2.0 29.1 30.196 0.00 0 0.000
1/28/22 8:05a 29.1 84 24.9 0.0 NNE 2.0 29.1 30.195 0.00 0 0.000
1/28/22 8:00a 29.1 84 24.9 0.0 NNE 1.0 29.1 30.196 0.00 0 0.000
1/28/22 7:55a 29.0 84 24.8 1.0 NNE 3.0 29.0 30.194 0.00 0 0.000
1/28/22 7:50a 29.0 84 24.8 1.0 NNE 2.0 29.0 30.195 0.00 0 0.000
1/28/22 7:45a 29.0 84 24.8 1.0 NNE 2.0 29.0 30.192 0.00 0 0.000
1/28/22 7:40a 29.0 84 24.8 0.0 NNE 1.0 29.0 30.191 0.00 0 0.000
1/28/22 7:35a 29.0 84 24.8 1.0 NNE 2.0 29.0 30.192 0.00 0 0.000
1/28/22 7:30a 29.0 84 24.8 0.0 NNE 2.0 29.0 30.189 0.00 0 0.000
1/28/22 7:25a 29.0 84 24.8 1.0 NNE 2.0 29.0 30.189 0.00 0 0.000
1/28/22 7:20a 29.0 84 24.8 1.0 NNE 2.0 29.0 30.189 0.00 0 0.000
1/28/22 7:15a 29.1 84 24.9 1.0 NNE 2.0 29.1 30.187 0.00 0 0.000
1/28/22 7:10a 29.2 84 25.0 1.0 NNE 2.0 29.2 30.185 0.00 0 0.000
1/28/22 7:05a 29.3 84 25.1 1.0 NNE 3.0 29.3 30.185 0.00 0 0.000
1/28/22 7:00a 29.4 84 25.2 1.0 NNE 2.0 29.4 30.189 0.00 0 0.000
1/28/22 6:55a 29.6 84 25.4 1.0 NNE 2.0 29.6 30.190 0.00 0 0.000
1/28/22 6:50a 29.6 84 25.4 0.0 NNE 3.0 29.6 30.191 0.00 0 0.000
1/28/22 6:45a 29.6 84 25.4 1.0 NNE 1.0 29.6 30.190 0.00 0 0.000
1/28/22 6:40a 29.6 84 25.4 0.0 NNE 1.0 29.6 30.189 0.00 0 0.000
1/28/22 6:35a 29.6 84 25.4 1.0 NNE 2.0 29.6 30.191 0.00 0 0.000
1/28/22 6:30a 29.6 84 25.4 1.0 NNE 2.0 29.6 30.191 0.00 0 0.000
1/28/22 6:25a 29.6 84 25.4 1.0 NNE 2.0 29.6 30.191 0.00 0 0.000
1/28/22 6:20a 29.7 84 25.5 1.0 N 3.0 29.7 30.191 0.00 0 0.000
1/28/22 6:15a 29.8 83 25.3 1.0 NNW 2.0 29.8 30.190 0.00 0 0.000
1/28/22 6:10a 29.8 83 25.3 1.0 W 2.0 29.8 30.188 0.00 0 0.000
1/28/22 6:05a 29.9 83 25.4 1.0 W 2.0 29.9 30.185 0.00 0 0.000
1/28/22 6:00a 30.0 83 25.5 0.0 W 1.0 30.0 30.183 0.00 0 0.000
1/28/22 5:55a 30.0 83 25.5 1.0 W 2.0 30.0 30.183 0.00 0 0.000
1/28/22 5:50a 30.2 83 25.7 1.0 W 2.0 30.2 30.186 0.01 0 0.000
1/28/22 5:45a 30.2 83 25.7 0.0 --- 0.0 30.2 30.187 0.00 0 0.000
1/28/22 5:40a 30.3 83 25.8 0.0 W 1.0 30.3 30.184 0.00 0 0.000
1/28/22 5:35a 30.3 83 25.8 0.0 W 1.0 30.3 30.187 0.00 0 0.000
1/28/22 5:30a 30.4 83 25.9 0.0 W 1.0 30.4 30.189 0.00 0 0.000
1/28/22 5:25a 30.4 83 25.9 0.0 --- 0.0 30.4 30.188 0.00 0 0.000
1/28/22 5:20a 30.4 83 25.9 0.0 W 2.0 30.4 30.186 0.00 0 0.000
1/28/22 5:15a 30.5 83 26.0 0.0 W 1.0 30.5 30.185 0.01 0 0.000
1/28/22 5:10a 30.6 83 26.1 0.0 --- 0.0 30.6 30.187 0.00 0 0.000
1/28/22 5:05a 30.5 83 26.0 0.0 --- 0.0 30.5 30.186 0.01 0 0.000
1/28/22 5:00a 30.5 83 26.0 0.0 W 1.0 30.5 30.186 0.00 0 0.000
1/28/22 4:55a 30.6 83 26.1 0.0 W 1.0 30.6 30.187 0.00 0 0.000
1/28/22 4:50a 30.6 83 26.1 0.0 --- 0.0 30.6 30.189 0.00 0 0.000
1/28/22 4:45a 30.5 83 26.0 0.0 --- 0.0 30.5 30.186 0.00 0 0.000
1/28/22 4:40a 30.3 83 25.8 0.0 --- 0.0 30.3 30.187 0.00 0 0.000
1/28/22 4:35a 30.3 83 25.8 0.0 --- 0.0 30.3 30.191 0.00 0 0.000
1/28/22 4:30a 30.3 83 25.8 0.0 --- 0.0 30.3 30.191 0.00 0 0.000
1/28/22 4:25a 30.3 83 25.8 0.0 --- 0.0 30.3 30.192 0.00 0 0.000
1/28/22 4:20a 30.3 83 25.8 0.0 --- 0.0 30.3 30.193 0.00 0 0.000
1/28/22 4:15a 30.3 83 25.8 0.0 --- 0.0 30.3 30.194 0.00 0 0.000
1/28/22 4:10a 30.4 83 25.9 0.0 W 1.0 30.4 30.195 0.00 0 0.000
1/28/22 4:05a 30.5 83 26.0 0.0 W 1.0 30.5 30.199 0.00 0 0.000
1/28/22 4:00a 30.5 83 26.0 0.0 --- 0.0 30.5 30.199 0.00 0 0.000
1/28/22 3:55a 30.4 83 25.9 0.0 --- 0.0 30.4 30.200 0.00 0 0.000
1/28/22 3:50a 30.2 84 25.9 0.0 --- 0.0 30.2 30.202 0.00 0 0.000
1/28/22 3:45a 29.9 84 25.7 0.0 --- 0.0 29.9 30.205 0.00 0 0.000
1/28/22 3:40a 29.7 84 25.5 0.0 W 1.0 29.7 30.206 0.00 0 0.000
1/28/22 3:35a 29.7 84 25.5 0.0 --- 0.0 29.7 30.208 0.00 0 0.000
1/28/22 3:30a 29.6 84 25.4 0.0 W 2.0 29.6 30.211 0.00 0 0.000
1/28/22 3:25a 29.7 84 25.5 0.0 --- 0.0 29.7 30.215 0.00 0 0.000
1/28/22 3:20a 29.6 84 25.4 0.0 W 2.0 29.6 30.217 0.00 0 0.000
1/28/22 3:15a 29.6 83 25.1 0.0 W 1.0 29.6 30.217 0.00 0 0.000
1/28/22 3:10a 29.7 83 25.2 0.0 W 1.0 29.7 30.218 0.00 0 0.000
1/28/22 3:05a 29.8 83 25.3 0.0 W 2.0 29.8 30.220 0.00 0 0.000
1/28/22 3:00a 29.8 83 25.3 0.0 W 2.0 29.8 30.221 0.00 0 0.000
1/28/22 2:55a 29.9 83 25.4 0.0 W 1.0 29.9 30.219 0.00 0 0.000
1/28/22 2:50a 29.9 83 25.4 0.0 --- 0.0 29.9 30.223 0.00 0 0.000
1/28/22 2:45a 30.0 83 25.5 0.0 --- 0.0 30.0 30.226 0.00 0 0.000
1/28/22 2:40a 30.1 83 25.6 0.0 --- 0.0 30.1 30.226 0.00 0 0.000
1/28/22 2:35a 30.0 83 25.5 0.0 --- 0.0 30.0 30.224 0.00 0 0.000
1/28/22 2:30a 30.1 83 25.6 0.0 W 1.0 30.1 30.226 0.00 0 0.000
1/28/22 2:25a 30.1 83 25.6 0.0 W 1.0 30.1 30.229 0.00 0 0.000
1/28/22 2:20a 30.1 83 25.6 0.0 --- 0.0 30.1 30.229 0.00 0 0.000
1/28/22 2:15a 30.1 83 25.6 0.0 W 1.0 30.1 30.228 0.00 0 0.000
1/28/22 2:10a 30.2 83 25.7 0.0 W 1.0 30.2 30.228 0.00 0 0.000
1/28/22 2:05a 30.3 83 25.8 0.0 W 2.0 30.3 30.229 0.00 0 0.000
1/28/22 2:00a 30.3 83 25.8 0.0 W 1.0 30.3 30.231 0.00 0 0.000
1/28/22 1:55a 30.3 83 25.8 0.0 W 1.0 30.3 30.232 0.00 0 0.000
1/28/22 1:50a 30.4 83 25.9 0.0 --- 0.0 30.4 30.232 0.00 0 0.000
1/28/22 1:45a 30.5 83 26.0 0.0 W 1.0 30.5 30.234 0.01 0 0.000
1/28/22 1:40a 30.5 83 26.0 0.0 W 1.0 30.5 30.234 0.00 0 0.000
1/28/22 1:35a 30.5 83 26.0 0.0 W 1.0 30.5 30.233 0.00 0 0.000
1/28/22 1:30a 30.5 83 26.0 0.0 W 1.0 30.5 30.237 0.00 0 0.000
1/28/22 1:25a 30.5 83 26.0 0.0 W 1.0 30.5 30.238 0.00 0 0.000
1/28/22 1:20a 30.5 83 26.0 0.0 W 2.0 30.5 30.239 0.00 0 0.000
1/28/22 1:15a 30.5 83 26.0 0.0 W 1.0 30.5 30.242 0.00 0 0.000
1/28/22 1:10a 30.5 83 26.0 0.0 W 2.0 30.5 30.242 0.00 0 0.000
1/28/22 1:05a 30.5 83 26.0 0.0 W 1.0 30.5 30.242 0.00 0 0.000
1/28/22 1:00a 30.5 83 26.0 0.0 W 1.0 30.5 30.250 0.00 0 0.000
1/28/22 12:55a 30.5 83 26.0 0.0 W 2.0 30.5 30.252 0.00 0 0.000
1/28/22 12:50a 30.5 83 26.0 1.0 W 2.0 30.5 30.250 0.01 0 0.000
1/28/22 12:45a 30.5 83 26.0 0.0 WSW 2.0 30.5 30.252 0.00 0 0.000
1/28/22 12:40a 30.6 83 26.1 0.0 WSW 1.0 30.6 30.250 0.00 0 0.000
1/28/22 12:35a 30.7 83 26.1 0.0 WSW 1.0 30.7 30.250 0.00 0 0.000
1/28/22 12:30a 30.6 83 26.1 0.0 WSW 1.0 30.6 30.248 0.00 0 0.000
1/28/22 12:25a 30.6 83 26.1 0.0 WSW 2.0 30.6 30.248 0.00 0 0.000
1/28/22 12:20a 30.6 82 25.8 0.0 WSW 1.0 30.6 30.248 0.00 0 0.000
1/28/22 12:15a 30.6 82 25.8 0.0 WSW 2.0 30.6 30.249 0.01 0 0.000
1/28/22 12:10a 30.7 82 25.9 1.0 WSW 2.0 30.7 30.251 0.00 0 0.000
1/28/22 12:05a 30.8 83 26.2 0.0 WSW 2.0 30.8 30.253 0.00 0 0.000
1/28/22 12:00a 30.8 83 26.2 0.0 WSW 1.0 30.8 30.251 0.00 0 0.000

14,690 Page Views